sensor_id;sensor_type;location;lat;lon;timestamp;pressure;altitude;pressure_sealevel;temperature;humidity
63090;BME280;49174;43.198;27.824;2023-05-19T00:00:14;101306.72;;;15.53;85.96
63090;BME280;49174;43.198;27.824;2023-05-19T00:02:52;101310.53;;;15.45;86.32
63090;BME280;49174;43.198;27.824;2023-05-19T00:05:17;101313.63;;;15.49;85.39
63090;BME280;49174;43.198;27.824;2023-05-19T00:07:44;101309.50;;;15.46;85.65
63090;BME280;49174;43.198;27.824;2023-05-19T00:10:11;101312.84;;;15.41;85.70
63090;BME280;49174;43.198;27.824;2023-05-19T00:12:37;101317.47;;;15.41;86.65
63090;BME280;49174;43.198;27.824;2023-05-19T00:15:03;101310.75;;;15.44;86.99
63090;BME280;49174;43.198;27.824;2023-05-19T00:17:29;101316.41;;;15.42;86.96
63090;BME280;49174;43.198;27.824;2023-05-19T00:19:55;101311.59;;;15.37;86.08
63090;BME280;49174;43.198;27.824;2023-05-19T00:22:20;101313.28;;;15.32;86.06
63090;BME280;49174;43.198;27.824;2023-05-19T00:24:46;101328.78;;;15.31;84.77
63090;BME280;49174;43.198;27.824;2023-05-19T00:27:11;101316.66;;;15.27;84.75
63090;BME280;49174;43.198;27.824;2023-05-19T00:29:37;101318.72;;;15.32;82.44
63090;BME280;49174;43.198;27.824;2023-05-19T00:32:02;101322.94;;;15.28;82.82
63090;BME280;49174;43.198;27.824;2023-05-19T00:34:28;101324.81;;;15.27;83.67
63090;BME280;49174;43.198;27.824;2023-05-19T00:36:53;101331.28;;;15.26;84.88
63090;BME280;49174;43.198;27.824;2023-05-19T00:39:19;101329.19;;;15.28;82.34
63090;BME280;49174;43.198;27.824;2023-05-19T00:41:44;101336.31;;;15.23;81.86
63090;BME280;49174;43.198;27.824;2023-05-19T00:44:10;101333.22;;;15.19;81.11
63090;BME280;49174;43.198;27.824;2023-05-19T00:46:36;101335.91;;;15.12;81.58
63090;BME280;49174;43.198;27.824;2023-05-19T00:49:02;101336.16;;;15.11;81.55
63090;BME280;49174;43.198;27.824;2023-05-19T00:51:28;101333.84;;;15.08;81.44
63090;BME280;49174;43.198;27.824;2023-05-19T00:53:54;101340.16;;;15.02;82.25
63090;BME280;49174;43.198;27.824;2023-05-19T00:56:21;101341.84;;;14.96;82.36
63090;BME280;49174;43.198;27.824;2023-05-19T00:58:49;101338.03;;;14.90;82.35
63090;BME280;49174;43.198;27.824;2023-05-19T01:01:15;101345.16;;;14.85;82.86
63090;BME280;49174;43.198;27.824;2023-05-19T01:03:42;101347.88;;;14.78;82.71
63090;BME280;49174;43.198;27.824;2023-05-19T01:06:08;101347.69;;;14.73;82.84
63090;BME280;49174;43.198;27.824;2023-05-19T01:08:35;101346.88;;;14.66;83.69
63090;BME280;49174;43.198;27.824;2023-05-19T01:11:02;101349.56;;;14.59;83.95
63090;BME280;49174;43.198;27.824;2023-05-19T01:13:28;101347.88;;;14.51;84.18
63090;BME280;49174;43.198;27.824;2023-05-19T01:18:24;101362.72;;;14.56;84.41
63090;BME280;49174;43.198;27.824;2023-05-19T01:21:35;101331.78;;;14.50;84.62
63090;BME280;49174;43.198;27.824;2023-05-19T01:32:09;101349.72;;;14.51;83.42
63090;BME280;49174;43.198;27.824;2023-05-19T01:34:41;101355.84;;;14.53;84.11
63090;BME280;49174;43.198;27.824;2023-05-19T01:37:07;101348.50;;;14.47;83.98
63090;BME280;49174;43.198;27.824;2023-05-19T01:39:34;101356.81;;;14.45;85.82
63090;BME280;49174;43.198;27.824;2023-05-19T01:42:00;101355.84;;;14.53;84.89
63090;BME280;49174;43.198;27.824;2023-05-19T01:44:27;101361.06;;;14.55;84.24
63090;BME280;49174;43.198;27.824;2023-05-19T01:46:53;101361.66;;;14.50;83.69
63090;BME280;49174;43.198;27.824;2023-05-19T01:49:18;101371.03;;;14.47;84.49
63090;BME280;49174;43.198;27.824;2023-05-19T01:51:44;101364.56;;;14.48;84.67
63090;BME280;49174;43.198;27.824;2023-05-19T01:54:10;101369.00;;;14.56;86.01
63090;BME280;49174;43.198;27.824;2023-05-19T01:57:11;101361.47;;;14.51;86.07
63090;BME280;49174;43.198;27.824;2023-05-19T01:59:50;101367.50;;;14.40;86.30
63090;BME280;49174;43.198;27.824;2023-05-19T02:05:00;101369.97;;;14.28;86.66
63090;BME280;49174;43.198;27.824;2023-05-19T02:07:50;101377.28;;;14.28;87.57
63090;BME280;49174;43.198;27.824;2023-05-19T02:10:27;101379.56;;;14.31;88.07
63090;BME280;49174;43.198;27.824;2023-05-19T02:13:00;101378.53;;;14.25;90.46
63090;BME280;49174;43.198;27.824;2023-05-19T02:15:33;101371.00;;;14.21;91.31
63090;BME280;49174;43.198;27.824;2023-05-19T02:18:03;101386.03;;;14.23;91.87
63090;BME280;49174;43.198;27.824;2023-05-19T02:20:30;101376.03;;;14.24;91.99
63090;BME280;49174;43.198;27.824;2023-05-19T02:22:55;101385.63;;;14.26;93.07
63090;BME280;49174;43.198;27.824;2023-05-19T02:25:21;101383.31;;;14.10;93.24
63090;BME280;49174;43.198;27.824;2023-05-19T02:27:47;101391.84;;;14.07;94.35
63090;BME280;49174;43.198;27.824;2023-05-19T02:30:13;101392.69;;;14.07;94.75
63090;BME280;49174;43.198;27.824;2023-05-19T02:32:39;101395.63;;;14.19;93.59
63090;BME280;49174;43.198;27.824;2023-05-19T02:35:04;101391.06;;;14.26;92.92
63090;BME280;49174;43.198;27.824;2023-05-19T02:37:30;101387.75;;;14.38;92.65
63090;BME280;49174;43.198;27.824;2023-05-19T02:39:57;101385.22;;;14.43;91.08
63090;BME280;49174;43.198;27.824;2023-05-19T02:42:22;101390.88;;;14.48;90.47
63090;BME280;49174;43.198;27.824;2023-05-19T02:44:48;101395.28;;;14.49;90.49
63090;BME280;49174;43.198;27.824;2023-05-19T02:47:14;101411.19;;;14.59;91.44
63090;BME280;49174;43.198;27.824;2023-05-19T02:49:40;101412.19;;;14.51;91.04
63090;BME280;49174;43.198;27.824;2023-05-19T02:52:07;101399.09;;;14.55;93.12
63090;BME280;49174;43.198;27.824;2023-05-19T02:54:33;101406.19;;;14.56;93.36
63090;BME280;49174;43.198;27.824;2023-05-19T02:56:59;101395.31;;;14.62;94.53
63090;BME280;49174;43.198;27.824;2023-05-19T02:59:25;101401.38;;;14.64;93.17
63090;BME280;49174;43.198;27.824;2023-05-19T03:01:54;101399.72;;;14.70;90.02
63090;BME280;49174;43.198;27.824;2023-05-19T03:04:20;101406.19;;;14.69;89.69
63090;BME280;49174;43.198;27.824;2023-05-19T03:06:45;101404.13;;;14.71;90.05
63090;BME280;49174;43.198;27.824;2023-05-19T03:09:12;101409.53;;;14.78;87.78
63090;BME280;49174;43.198;27.824;2023-05-19T03:11:38;101401.16;;;14.79;87.54
63090;BME280;49174;43.198;27.824;2023-05-19T03:14:03;101396.38;;;14.88;86.41
63090;BME280;49174;43.198;27.824;2023-05-19T03:16:29;101404.53;;;14.88;86.21
63090;BME280;49174;43.198;27.824;2023-05-19T03:18:55;101401.16;;;14.92;85.87
63090;BME280;49174;43.198;27.824;2023-05-19T03:21:21;101404.94;;;14.91;86.34
63090;BME280;49174;43.198;27.824;2023-05-19T03:23:47;101407.84;;;14.90;87.49
63090;BME280;49174;43.198;27.824;2023-05-19T03:26:12;101413.53;;;14.88;86.73
63090;BME280;49174;43.198;27.824;2023-05-19T03:28:38;101412.28;;;14.91;86.26
63090;BME280;49174;43.198;27.824;2023-05-19T03:31:03;101429.59;;;14.90;85.79
63090;BME280;49174;43.198;27.824;2023-05-19T03:33:29;101427.09;;;14.95;85.74
63090;BME280;49174;43.198;27.824;2023-05-19T03:35:57;101435.03;;;14.90;88.11
63090;BME280;49174;43.198;27.824;2023-05-19T03:38:23;101439.84;;;14.94;89.14
63090;BME280;49174;43.198;27.824;2023-05-19T03:40:49;101444.88;;;14.97;89.94
63090;BME280;49174;43.198;27.824;2023-05-19T03:43:14;101445.28;;;15.01;88.97
63090;BME280;49174;43.198;27.824;2023-05-19T03:45:40;101444.44;;;15.01;87.95
63090;BME280;49174;43.198;27.824;2023-05-19T03:48:06;101448.00;;;15.14;86.51
63090;BME280;49174;43.198;27.824;2023-05-19T03:50:34;101443.81;;;15.18;85.17
63090;BME280;49174;43.198;27.824;2023-05-19T03:53:02;101453.44;;;15.28;82.62
63090;BME280;49174;43.198;27.824;2023-05-19T03:55:27;101445.47;;;15.39;80.33
63090;BME280;49174;43.198;27.824;2023-05-19T03:57:54;101450.69;;;15.48;79.77
63090;BME280;49174;43.198;27.824;2023-05-19T04:00:20;101445.44;;;15.53;80.68
63090;BME280;49174;43.198;27.824;2023-05-19T04:02:45;101438.72;;;15.62;80.19
63090;BME280;49174;43.198;27.824;2023-05-19T04:05:11;101450.47;;;15.69;80.26
63090;BME280;49174;43.198;27.824;2023-05-19T04:07:36;101447.75;;;15.69;78.65
63090;BME280;49174;43.198;27.824;2023-05-19T04:10:03;101445.22;;;15.74;80.08
63090;BME280;49174;43.198;27.824;2023-05-19T04:12:29;101450.81;;;15.79;78.43
63090;BME280;49174;43.198;27.824;2023-05-19T04:14:55;101446.25;;;15.80;79.38
63090;BME280;49174;43.198;27.824;2023-05-19T04:17:20;101451.44;;;15.88;78.62
63090;BME280;49174;43.198;27.824;2023-05-19T04:19:47;101452.06;;;15.90;79.59
63090;BME280;49174;43.198;27.824;2023-05-19T04:22:13;101462.50;;;15.93;79.00
63090;BME280;49174;43.198;27.824;2023-05-19T04:24:38;101468.81;;;15.94;78.06
63090;BME280;49174;43.198;27.824;2023-05-19T04:27:04;101460.81;;;15.99;79.80
63090;BME280;49174;43.198;27.824;2023-05-19T04:29:36;101464.16;;;16.01;79.18
63090;BME280;49174;43.198;27.824;2023-05-19T04:32:02;101462.91;;;16.03;79.41
63090;BME280;49174;43.198;27.824;2023-05-19T04:34:35;101462.03;;;16.09;80.08
63090;BME280;49174;43.198;27.824;2023-05-19T04:37:05;101465.56;;;16.17;80.10
63090;BME280;49174;43.198;27.824;2023-05-19T04:39:31;101467.41;;;16.23;79.56
63090;BME280;49174;43.198;27.824;2023-05-19T04:41:56;101467.16;;;16.31;79.56
63090;BME280;49174;43.198;27.824;2023-05-19T04:44:22;101464.00;;;16.34;78.74
63090;BME280;49174;43.198;27.824;2023-05-19T04:46:47;101469.41;;;16.41;76.71
63090;BME280;49174;43.198;27.824;2023-05-19T04:49:14;101477.19;;;16.44;76.25
63090;BME280;49174;43.198;27.824;2023-05-19T04:51:40;101469.38;;;16.47;77.48
63090;BME280;49174;43.198;27.824;2023-05-19T04:54:07;101473.13;;;16.53;78.44
63090;BME280;49174;43.198;27.824;2023-05-19T04:56:32;101481.31;;;16.53;78.43
63090;BME280;49174;43.198;27.824;2023-05-19T04:58:58;101474.78;;;16.54;77.73
63090;BME280;49174;43.198;27.824;2023-05-19T05:01:23;101482.78;;;16.49;76.74
63090;BME280;49174;43.198;27.824;2023-05-19T05:03:51;101484.47;;;16.50;76.66
63090;BME280;49174;43.198;27.824;2023-05-19T05:06:20;101478.13;;;16.56;77.62
63090;BME280;49174;43.198;27.824;2023-05-19T05:08:47;101482.50;;;16.64;76.85
63090;BME280;49174;43.198;27.824;2023-05-19T05:11:13;101476.63;;;16.67;75.88
63090;BME280;49174;43.198;27.824;2023-05-19T05:13:39;101477.00;;;16.70;76.20
63090;BME280;49174;43.198;27.824;2023-05-19T05:16:05;101473.41;;;16.77;76.80
63090;BME280;49174;43.198;27.824;2023-05-19T05:18:32;101475.94;;;16.78;75.53
63090;BME280;49174;43.198;27.824;2023-05-19T05:20:58;101472.31;;;16.84;75.66
63090;BME280;49174;43.198;27.824;2023-05-19T05:23:23;101472.50;;;16.89;75.37
63090;BME280;49174;43.198;27.824;2023-05-19T05:25:49;101475.78;;;16.98;76.20
63090;BME280;49174;43.198;27.824;2023-05-19T05:28:15;101478.25;;;17.06;75.19
63090;BME280;49174;43.198;27.824;2023-05-19T05:30:41;101473.50;;;17.20;74.21
63090;BME280;49174;43.198;27.824;2023-05-19T05:33:08;101474.44;;;17.32;74.04
63090;BME280;49174;43.198;27.824;2023-05-19T05:35:33;101481.31;;;17.41;72.28
63090;BME280;49174;43.198;27.824;2023-05-19T05:37:59;101475.16;;;17.46;73.06
63090;BME280;49174;43.198;27.824;2023-05-19T05:40:25;101476.56;;;17.55;73.81
63090;BME280;49174;43.198;27.824;2023-05-19T05:42:53;101479.00;;;17.63;70.76
63090;BME280;49174;43.198;27.824;2023-05-19T05:45:23;101485.31;;;17.82;72.05
63090;BME280;49174;43.198;27.824;2023-05-19T05:47:49;101491.25;;;17.98;74.38
63090;BME280;49174;43.198;27.824;2023-05-19T05:50:16;101479.69;;;18.14;68.81
63090;BME280;49174;43.198;27.824;2023-05-19T05:52:45;101487.13;;;18.25;69.65
63090;BME280;49174;43.198;27.824;2023-05-19T05:55:11;101482.78;;;18.36;68.03
63090;BME280;49174;43.198;27.824;2023-05-19T05:57:37;101486.84;;;18.45;68.41
63090;BME280;49174;43.198;27.824;2023-05-19T06:00:03;101484.38;;;18.74;67.28
63090;BME280;49174;43.198;27.824;2023-05-19T06:02:34;101479.81;;;18.98;65.66
63090;BME280;49174;43.198;27.824;2023-05-19T06:05:01;101479.59;;;19.35;61.37
63090;BME280;49174;43.198;27.824;2023-05-19T06:07:26;101470.44;;;19.64;60.99
63090;BME280;49174;43.198;27.824;2023-05-19T06:09:54;101468.63;;;19.94;58.61
63090;BME280;49174;43.198;27.824;2023-05-19T06:12:20;101457.34;;;20.19;59.09
63090;BME280;49174;43.198;27.824;2023-05-19T06:14:47;101456.09;;;20.38;56.82
63090;BME280;49174;43.198;27.824;2023-05-19T06:17:12;101457.44;;;20.52;57.43
63090;BME280;49174;43.198;27.824;2023-05-19T06:19:38;101450.72;;;20.72;58.02
63090;BME280;49174;43.198;27.824;2023-05-19T06:22:03;101449.41;;;20.91;58.24
63090;BME280;49174;43.198;27.824;2023-05-19T06:24:29;101443.66;;;21.10;56.03
63090;BME280;49174;43.198;27.824;2023-05-19T06:26:54;101446.72;;;21.30;55.35
63090;BME280;49174;43.198;27.824;2023-05-19T06:29:20;101449.03;;;21.55;54.82
63090;BME280;49174;43.198;27.824;2023-05-19T06:31:45;101451.75;;;21.72;52.42
63090;BME280;49174;43.198;27.824;2023-05-19T06:34:11;101454.78;;;21.93;51.24
63090;BME280;49174;43.198;27.824;2023-05-19T06:36:39;101458.84;;;22.12;51.55
63090;BME280;49174;43.198;27.824;2023-05-19T06:39:05;101454.97;;;22.30;51.73
63090;BME280;49174;43.198;27.824;2023-05-19T06:41:31;101458.19;;;22.49;49.03
63090;BME280;49174;43.198;27.824;2023-05-19T06:43:56;101451.66;;;22.55;48.19
63090;BME280;49174;43.198;27.824;2023-05-19T06:46:22;101457.25;;;22.65;47.29
63090;BME280;49174;43.198;27.824;2023-05-19T06:48:47;101462.38;;;22.84;48.66
63090;BME280;49174;43.198;27.824;2023-05-19T06:51:13;101468.59;;;23.01;48.50
63090;BME280;49174;43.198;27.824;2023-05-19T06:53:41;101469.78;;;23.10;47.73
63090;BME280;49174;43.198;27.824;2023-05-19T06:56:07;101478.09;;;23.15;48.29
63090;BME280;49174;43.198;27.824;2023-05-19T06:58:34;101466.34;;;23.30;47.81
63090;BME280;49174;43.198;27.824;2023-05-19T07:01:00;101475.34;;;23.58;45.86
63090;BME280;49174;43.198;27.824;2023-05-19T07:03:25;101475.03;;;23.49;46.22
63090;BME280;49174;43.198;27.824;2023-05-19T07:05:51;101476.63;;;23.45;46.72
63090;BME280;49174;43.198;27.824;2023-05-19T07:08:16;101480.06;;;23.62;46.03
63090;BME280;49174;43.198;27.824;2023-05-19T07:10:42;101486.50;;;23.78;47.01
63090;BME280;49174;43.198;27.824;2023-05-19T07:13:07;101489.63;;;23.92;46.91
63090;BME280;49174;43.198;27.824;2023-05-19T07:15:33;101471.25;;;24.13;44.79
63090;BME280;49174;43.198;27.824;2023-05-19T07:17:58;101473.25;;;24.38;44.77
63090;BME280;49174;43.198;27.824;2023-05-19T07:20:24;101479.38;;;24.56;44.64
63090;BME280;49174;43.198;27.824;2023-05-19T07:22:50;101474.47;;;24.83;45.25
63090;BME280;49174;43.198;27.824;2023-05-19T07:25:16;101488.28;;;25.09;44.47
63090;BME280;49174;43.198;27.824;2023-05-19T07:27:41;101485.25;;;25.31;43.78
63090;BME280;49174;43.198;27.824;2023-05-19T07:30:07;101486.03;;;25.52;42.83
63090;BME280;49174;43.198;27.824;2023-05-19T07:32:33;101482.41;;;25.72;43.36
63090;BME280;49174;43.198;27.824;2023-05-19T07:34:58;101494.25;;;25.93;45.04
63090;BME280;49174;43.198;27.824;2023-05-19T07:37:24;101486.41;;;26.20;42.30
63090;BME280;49174;43.198;27.824;2023-05-19T07:39:50;101485.47;;;26.40;41.31
63090;BME280;49174;43.198;27.824;2023-05-19T07:42:16;101492.84;;;26.60;41.26
63090;BME280;49174;43.198;27.824;2023-05-19T07:44:41;101492.16;;;26.79;41.00
63090;BME280;49174;43.198;27.824;2023-05-19T07:47:07;101494.28;;;26.92;39.80
63090;BME280;49174;43.198;27.824;2023-05-19T07:49:32;101504.19;;;27.03;38.07
63090;BME280;49174;43.198;27.824;2023-05-19T07:51:58;101489.13;;;27.14;38.32
63090;BME280;49174;43.198;27.824;2023-05-19T07:54:23;101497.91;;;27.27;39.15
63090;BME280;49174;43.198;27.824;2023-05-19T07:56:49;101497.19;;;27.45;38.79
63090;BME280;49174;43.198;27.824;2023-05-19T07:59:15;101505.03;;;27.62;38.67
63090;BME280;49174;43.198;27.824;2023-05-19T08:01:40;101499.97;;;27.69;38.32
63090;BME280;49174;43.198;27.824;2023-05-19T08:04:06;101497.88;;;27.85;38.57
63090;BME280;49174;43.198;27.824;2023-05-19T08:06:32;101498.50;;;27.77;36.74
63090;BME280;49174;43.198;27.824;2023-05-19T08:08:57;101498.22;;;27.49;35.60
63090;BME280;49174;43.198;27.824;2023-05-19T08:11:23;101500.19;;;27.20;36.16
63090;BME280;49174;43.198;27.824;2023-05-19T08:13:48;101507.34;;;26.86;37.34
63090;BME280;49174;43.198;27.824;2023-05-19T08:16:14;101507.63;;;26.85;36.92
63090;BME280;49174;43.198;27.824;2023-05-19T08:18:40;101511.13;;;27.01;38.10
63090;BME280;49174;43.198;27.824;2023-05-19T08:21:06;101514.53;;;27.27;37.88
63090;BME280;49174;43.198;27.824;2023-05-19T08:23:32;101518.72;;;27.53;40.91
63090;BME280;49174;43.198;27.824;2023-05-19T08:25:57;101501.44;;;27.32;37.38
63090;BME280;49174;43.198;27.824;2023-05-19T08:28:23;101511.94;;;27.35;41.14
63090;BME280;49174;43.198;27.824;2023-05-19T08:30:49;101519.44;;;27.35;42.98
63090;BME280;49174;43.198;27.824;2023-05-19T08:33:16;101512.78;;;27.36;42.35
63090;BME280;49174;43.198;27.824;2023-05-19T08:35:41;101519.59;;;27.20;40.98
63090;BME280;49174;43.198;27.824;2023-05-19T08:38:07;101520.13;;;26.77;41.41
63090;BME280;49174;43.198;27.824;2023-05-19T08:40:33;101512.84;;;26.47;40.52
63090;BME280;49174;43.198;27.824;2023-05-19T08:43:01;101525.00;;;26.46;42.32
63090;BME280;49174;43.198;27.824;2023-05-19T08:45:27;101515.53;;;26.62;39.16
63090;BME280;49174;43.198;27.824;2023-05-19T08:47:54;101509.78;;;26.93;36.53
63090;BME280;49174;43.198;27.824;2023-05-19T08:50:23;101519.03;;;27.17;37.63
63090;BME280;49174;43.198;27.824;2023-05-19T08:53:18;101518.91;;;26.93;38.63
63090;BME280;49174;43.198;27.824;2023-05-19T08:56:25;101511.31;;;27.44;35.70
63090;BME280;49174;43.198;27.824;2023-05-19T08:58:52;101504.03;;;27.82;36.42
63090;BME280;49174;43.198;27.824;2023-05-19T09:01:18;101500.59;;;27.90;36.10
63090;BME280;49174;43.198;27.824;2023-05-19T09:03:45;101498.88;;;27.94;34.18
63090;BME280;49174;43.198;27.824;2023-05-19T09:06:11;101513.41;;;27.86;34.66
63090;BME280;49174;43.198;27.824;2023-05-19T09:08:39;101510.41;;;27.77;34.87
63090;BME280;49174;43.198;27.824;2023-05-19T09:11:05;101505.38;;;28.09;34.29
63090;BME280;49174;43.198;27.824;2023-05-19T09:13:31;101499.72;;;28.38;34.73
63090;BME280;49174;43.198;27.824;2023-05-19T09:15:57;101515.50;;;27.94;36.43
63090;BME280;49174;43.198;27.824;2023-05-19T09:18:24;101500.31;;;27.92;36.20
63090;BME280;49174;43.198;27.824;2023-05-19T09:20:55;101497.94;;;28.04;37.49
63090;BME280;49174;43.198;27.824;2023-05-19T09:23:26;101514.22;;;27.57;39.63
63090;BME280;49174;43.198;27.824;2023-05-19T09:25:52;101519.88;;;26.73;41.34
63090;BME280;49174;43.198;27.824;2023-05-19T09:28:28;101513.00;;;26.06;42.66
63090;BME280;49174;43.198;27.824;2023-05-19T09:31:15;101515.28;;;25.68;42.99
63090;BME280;49174;43.198;27.824;2023-05-19T09:33:41;101524.66;;;25.93;44.51
63090;BME280;49174;43.198;27.824;2023-05-19T09:36:07;101501.84;;;26.26;42.72
63090;BME280;49174;43.198;27.824;2023-05-19T09:38:36;101506.44;;;25.71;43.01
63090;BME280;49174;43.198;27.824;2023-05-19T09:41:03;101499.84;;;25.67;44.59
63090;BME280;49174;43.198;27.824;2023-05-19T09:43:30;101509.81;;;25.37;45.71
63090;BME280;49174;43.198;27.824;2023-05-19T09:46:07;101521.94;;;25.57;45.38
63090;BME280;49174;43.198;27.824;2023-05-19T09:48:34;101530.75;;;24.77;48.17
63090;BME280;49174;43.198;27.824;2023-05-19T09:51:01;101520.88;;;23.66;49.12
63090;BME280;49174;43.198;27.824;2023-05-19T09:53:28;101529.28;;;23.16;50.54
63090;BME280;49174;43.198;27.824;2023-05-19T09:55:55;101534.13;;;22.77;52.09
63090;BME280;49174;43.198;27.824;2023-05-19T09:58:22;101534.31;;;22.70;53.01
63090;BME280;49174;43.198;27.824;2023-05-19T10:00:49;101534.91;;;23.00;53.63
63090;BME280;49174;43.198;27.824;2023-05-19T10:03:15;101536.47;;;23.55;53.17
63090;BME280;49174;43.198;27.824;2023-05-19T10:05:43;101530.94;;;23.50;52.99
63090;BME280;49174;43.198;27.824;2023-05-19T10:08:11;101537.81;;;23.90;51.79
63090;BME280;49174;43.198;27.824;2023-05-19T10:10:37;101544.16;;;23.90;52.45
63090;BME280;49174;43.198;27.824;2023-05-19T10:13:04;101538.81;;;24.26;52.04
63090;BME280;49174;43.198;27.824;2023-05-19T10:15:30;101532.91;;;24.55;51.39
63090;BME280;49174;43.198;27.824;2023-05-19T10:17:56;101538.41;;;24.49;50.97
63090;BME280;49174;43.198;27.824;2023-05-19T10:20:25;101541.72;;;24.51;50.24
63090;BME280;49174;43.198;27.824;2023-05-19T10:22:51;101534.28;;;24.57;51.10
63090;BME280;49174;43.198;27.824;2023-05-19T10:25:16;101533.50;;;24.72;49.27
63090;BME280;49174;43.198;27.824;2023-05-19T10:27:56;101537.78;;;24.37;50.65
63090;BME280;49174;43.198;27.824;2023-05-19T10:30:30;101531.72;;;24.35;51.29
63090;BME280;49174;43.198;27.824;2023-05-19T10:32:59;101526.75;;;24.37;49.53
63090;BME280;49174;43.198;27.824;2023-05-19T10:35:52;101531.63;;;24.15;51.03
63090;BME280;49174;43.198;27.824;2023-05-19T10:38:33;101527.47;;;24.12;50.82
63090;BME280;49174;43.198;27.824;2023-05-19T10:46:11;101525.75;;;24.59;46.52
63090;BME280;49174;43.198;27.824;2023-05-19T10:48:36;101531.06;;;24.13;47.99
63090;BME280;49174;43.198;27.824;2023-05-19T10:51:03;101529.63;;;23.57;49.15
63090;BME280;49174;43.198;27.824;2023-05-19T10:53:32;101520.94;;;23.38;49.09
63090;BME280;49174;43.198;27.824;2023-05-19T10:56:01;101522.81;;;23.33;49.83
63090;BME280;49174;43.198;27.824;2023-05-19T11:01:12;101527.41;;;23.97;47.69
63090;BME280;49174;43.198;27.824;2023-05-19T11:03:55;101520.78;;;23.55;49.02
63090;BME280;49174;43.198;27.824;2023-05-19T11:09:13;101533.13;;;22.88;49.37
63090;BME280;49174;43.198;27.824;2023-05-19T11:11:47;101528.59;;;22.99;48.71
63090;BME280;49174;43.198;27.824;2023-05-19T11:14:14;101517.44;;;23.53;47.60
63090;BME280;49174;43.198;27.824;2023-05-19T11:16:41;101516.16;;;24.08;45.83
63090;BME280;49174;43.198;27.824;2023-05-19T11:19:07;101517.75;;;23.94;46.15
63090;BME280;49174;43.198;27.824;2023-05-19T11:21:49;101514.78;;;23.63;45.65
63090;BME280;49174;43.198;27.824;2023-05-19T11:24:35;101508.09;;;23.92;46.08
63090;BME280;49174;43.198;27.824;2023-05-19T11:27:20;101507.31;;;24.06;44.76
63090;BME280;49174;43.198;27.824;2023-05-19T11:29:47;101502.53;;;23.86;45.86
63090;BME280;49174;43.198;27.824;2023-05-19T11:32:14;101502.13;;;23.68;46.14
63090;BME280;49174;43.198;27.824;2023-05-19T11:34:39;101508.63;;;23.89;46.58
63090;BME280;49174;43.198;27.824;2023-05-19T11:37:06;101501.66;;;23.76;45.61
63090;BME280;49174;43.198;27.824;2023-05-19T11:39:33;101498.00;;;23.70;45.53
63090;BME280;49174;43.198;27.824;2023-05-19T11:41:59;101501.53;;;24.08;45.15
63090;BME280;49174;43.198;27.824;2023-05-19T11:44:25;101495.81;;;24.25;44.52
63090;BME280;49174;43.198;27.824;2023-05-19T11:46:50;101490.47;;;24.66;43.59
63090;BME280;49174;43.198;27.824;2023-05-19T11:49:16;101482.19;;;24.91;42.46
63090;BME280;49174;43.198;27.824;2023-05-19T11:51:43;101492.97;;;25.08;42.40
63090;BME280;49174;43.198;27.824;2023-05-19T11:54:11;101486.38;;;25.14;43.34
63090;BME280;49174;43.198;27.824;2023-05-19T11:56:41;101489.66;;;24.86;44.93
63090;BME280;49174;43.198;27.824;2023-05-19T11:59:10;101487.44;;;24.98;44.80
63090;BME280;49174;43.198;27.824;2023-05-19T12:01:36;101488.25;;;25.55;43.31
63090;BME280;49174;43.198;27.824;2023-05-19T12:04:06;101484.88;;;25.78;42.58
63090;BME280;49174;43.198;27.824;2023-05-19T12:06:32;101476.09;;;25.56;42.50
63090;BME280;49174;43.198;27.824;2023-05-19T12:08:58;101485.50;;;25.55;43.38
63090;BME280;49174;43.198;27.824;2023-05-19T12:11:26;101487.16;;;25.56;41.91
63090;BME280;49174;43.198;27.824;2023-05-19T12:13:57;101488.78;;;25.67;42.13
63090;BME280;49174;43.198;27.824;2023-05-19T12:16:23;101492.03;;;25.95;42.00
63090;BME280;49174;43.198;27.824;2023-05-19T12:18:56;101497.31;;;25.81;41.47
63090;BME280;49174;43.198;27.824;2023-05-19T12:21:22;101487.91;;;25.82;42.65
63090;BME280;49174;43.198;27.824;2023-05-19T12:23:47;101490.78;;;25.41;42.53
63090;BME280;49174;43.198;27.824;2023-05-19T12:26:13;101483.81;;;25.54;42.31
63090;BME280;49174;43.198;27.824;2023-05-19T12:28:39;101483.75;;;25.79;40.99
63090;BME280;49174;43.198;27.824;2023-05-19T12:31:05;101476.00;;;25.97;42.34
63090;BME280;49174;43.198;27.824;2023-05-19T12:33:32;101494.50;;;26.01;41.82
63090;BME280;49174;43.198;27.824;2023-05-19T12:35:57;101488.47;;;25.94;42.14
63090;BME280;49174;43.198;27.824;2023-05-19T12:38:23;101474.88;;;26.03;41.94
63090;BME280;49174;43.198;27.824;2023-05-19T12:40:49;101485.41;;;25.91;41.02
63090;BME280;49174;43.198;27.824;2023-05-19T12:43:19;101485.16;;;25.87;41.25
63090;BME280;49174;43.198;27.824;2023-05-19T12:45:45;101482.66;;;25.80;42.57
63090;BME280;49174;43.198;27.824;2023-05-19T12:48:11;101472.78;;;26.29;40.87
63090;BME280;49174;43.198;27.824;2023-05-19T12:50:36;101479.25;;;26.14;41.85
63090;BME280;49174;43.198;27.824;2023-05-19T12:53:02;101480.38;;;26.08;39.38
63090;BME280;49174;43.198;27.824;2023-05-19T12:55:40;101479.69;;;25.56;40.94
63090;BME280;49174;43.198;27.824;2023-05-19T12:58:08;101473.03;;;25.68;42.01
63090;BME280;49174;43.198;27.824;2023-05-19T13:00:45;101483.22;;;25.77;41.37
63090;BME280;49174;43.198;27.824;2023-05-19T13:03:16;101485.47;;;25.60;41.54
63090;BME280;49174;43.198;27.824;2023-05-19T13:05:47;101486.28;;;25.71;41.53